M/V Annette Cenac — WDC4233 — position and weather

sailwx.info

Track history (hours):
 
Tides and Currents Weather Stations Pressure Air Temp Water Temp Dewpoint Dewpoint Depression Visibility Wind Speed Wind Dir Waves Ship Positions

M/V Annette Cenac

Owner: Caillou Island Towing, Inc, Houma, LA. More information available from US FCC via Universal Licensing System and Coast Guard Vessel Documentation Center.

Last reported at 2017-Oct-12 15:47 UTC. Time now 2017-Oct-17 11:13 UTC.
Position N 29°34' W 090°43'.

Length 20 m; draft 3 m.

Type: Tug. MMSI: 367021310.

Date/timePositionNaut miles runAvg speedWind from/ knotsBaromVisibWave heightAir tempDewpointWater temp
2017-Oct-12 15:47N 29°34' W 090°43'0 0.0
2017-Oct-12 15:30N 29°34' W 090°43'0 0.1
2017-Oct-12 15:00N 29°34' W 090°43'0 0.0
2017-Oct-12 14:30N 29°34' W 090°43'0 0.0
2017-Oct-12 14:00N 29°34' W 090°43'0 0.0
2017-Oct-12 13:30N 29°34' W 090°43'0 0.0
2017-Oct-11 22:45N 29°34' W 090°43'0 0.0
2017-Oct-11 22:30N 29°34' W 090°43'0 0.0
2017-Oct-11 22:00N 29°34' W 090°43'0 0.0
2017-Oct-11 21:30N 29°34' W 090°43'0 0.0
2017-Oct-11 21:00N 29°34' W 090°43'0 0.0
2017-Oct-11 20:30N 29°34' W 090°43'0 0.0
2017-Oct-11 20:00N 29°34' W 090°43'0 0.0
2017-Oct-11 19:30N 29°34' W 090°43'0 0.0
2017-Oct-11 19:00N 29°34' W 090°43'0 0.0
2017-Oct-11 18:30N 29°34' W 090°43'0 0.0
2017-Oct-11 18:00N 29°34' W 090°43'0 0.0
2017-Oct-11 17:30N 29°34' W 090°43'0 0.0
2017-Oct-11 17:00N 29°34' W 090°43'0 0.0
2017-Oct-11 00:00N 29°34' W 090°43'0 0.0
2017-Oct-10 23:30N 29°34' W 090°43'0 0.0
2017-Oct-10 23:00N 29°34' W 090°43'0 0.3
2017-Oct-10 22:30N 29°34' W 090°43'1 1.4
2017-Oct-10 22:00N 29°34' W 090°42'0 0.1
2017-Oct-10 21:30N 29°34' W 090°42'0 0.2
2017-Oct-10 21:00N 29°34' W 090°42'0 0.0
2017-Oct-10 20:30N 29°34' W 090°42'1 1.6
2017-Oct-10 20:00N 29°34' W 090°43'0 0.0
2017-Oct-10 19:30N 29°34' W 090°43'0 0.0
2017-Oct-10 19:00N 29°34' W 090°43'0 0.0
2017-Oct-10 18:30N 29°34' W 090°43'0 0.0
2017-Oct-10 18:00N 29°34' W 090°43'0 0.0
2017-Oct-10 17:30N 29°34' W 090°43'0 0.0
2017-Oct-10 17:00N 29°34' W 090°43'0 0.0
2017-Oct-10 16:30N 29°34' W 090°43'0 0.0
2017-Oct-10 16:00N 29°34' W 090°43'0 0.0
2017-Oct-10 15:30N 29°34' W 090°43'0 0.0
2017-Oct-10 15:00N 29°34' W 090°43'0 0.0
2017-Oct-10 14:00N 29°34' W 090°43'2 4.9
2017-Oct-10 13:30N 29°32' W 090°42'4 6.8
2017-Oct-10 12:58N 29°28' W 090°43'6 0.6
2017-Oct-10 03:20N 29°25' W 090°49'1 3.3
2017-Oct-10 02:59N 29°25' W 090°47'4 2.1
2017-Oct-10 01:10N 29°26' W 090°43'2 4.4
2017-Oct-10 00:46N 29°28' W 090°43'1 4.4
2017-Oct-10 00:30N 29°29' W 090°43'2 4.4
2017-Oct-10 00:00N 29°31' W 090°42'2 4.2
2017-Oct-09 23:30N 29°33' W 090°42'2 3.3
2017-Oct-09 23:00N 29°35' W 090°43'2 3.1
2017-Oct-09 22:30N 29°36' W 090°43'1 2.1
2017-Oct-09 22:00N 29°37' W 090°41'1 2.8
2017-Oct-09 21:30N 29°36' W 090°40'0 0.1
2017-Oct-09 21:00N 29°36' W 090°40'0 0.0
2017-Oct-09 20:30N 29°36' W 090°40'0 0.2
2017-Oct-09 20:00N 29°36' W 090°40'0 0.1
2017-Oct-09 19:30N 29°36' W 090°40'0 0.0
2017-Oct-09 19:00N 29°36' W 090°40'0 0.0
2017-Oct-09 18:30N 29°36' W 090°40'0 0.5
2017-Oct-09 18:00N 29°36' W 090°40'0 0.0
2017-Oct-09 17:30N 29°36' W 090°40'0 0.0
2017-Oct-09 17:00N 29°36' W 090°40'0 0.0
2017-Oct-09 16:30N 29°36' W 090°40'0 0.5
2017-Oct-09 16:00N 29°36' W 090°40'2 3.6
2017-Oct-09 15:30N 29°37' W 090°42'2 4.0
2017-Oct-09 15:00N 29°35' W 090°43'1 2.6
2017-Oct-09 14:30N 29°34' W 090°42'0 0.9
2017-Oct-09 14:00N 29°34' W 090°43'0 0.0
2017-Oct-09 13:30N 29°34' W 090°43'0 0.0
2017-Oct-09 13:00N 29°34' W 090°43'0 0.0
2017-Oct-09 12:30N 29°34' W 090°43'0 0.0
2017-Oct-09 12:00N 29°34' W 090°43'0 0.0
2017-Oct-09 11:30N 29°34' W 090°43'0 0.0
2017-Oct-09 11:00N 29°34' W 090°43'0 0.0
2017-Oct-09 10:30N 29°34' W 090°43'0 0.0
2017-Oct-09 10:00N 29°34' W 090°43'0 0.0
2017-Oct-09 09:30N 29°34' W 090°43'0 0.0
2017-Oct-09 09:00N 29°34' W 090°43'0 0.0
2017-Oct-09 08:30N 29°34' W 090°43'0 0.0
2017-Oct-09 08:00N 29°34' W 090°43'0 0.0
2017-Oct-09 07:30N 29°34' W 090°43'0 0.0
2017-Oct-09 07:00N 29°34' W 090°43'0 0.0
2017-Oct-09 06:30N 29°34' W 090°43'0 0.0
2017-Oct-09 06:00N 29°34' W 090°43'0 0.0
2017-Oct-09 05:30N 29°34' W 090°43'0 0.0
2017-Oct-09 05:00N 29°34' W 090°43'0 0.0
2017-Oct-09 04:30N 29°34' W 090°43'0 0.0
2017-Oct-09 04:00N 29°34' W 090°43'0 0.0
2017-Oct-09 03:30N 29°34' W 090°43'0 0.0
2017-Oct-09 03:00N 29°34' W 090°43'0 0.0
2017-Oct-09 02:30N 29°34' W 090°43'0 0.0
2017-Oct-09 02:00N 29°34' W 090°43'0 0.0
2017-Oct-09 01:30N 29°34' W 090°43'0 0.0
2017-Oct-09 01:00N 29°34' W 090°43'0 0.0
2017-Oct-09 00:30N 29°34' W 090°43'0 0.0
2017-Oct-09 00:00N 29°34' W 090°43'0 0.0
2017-Oct-08 23:30N 29°34' W 090°43'0 0.0
2017-Oct-08 23:00N 29°34' W 090°43'0 0.0
2017-Oct-08 22:30N 29°34' W 090°43'0 0.0
2017-Oct-08 22:00N 29°34' W 090°43'0 0.0
2017-Oct-08 21:30N 29°34' W 090°43'0 0.0
2017-Oct-08 21:00N 29°34' W 090°43'0 0.0
2017-Oct-08 20:30N 29°34' W 090°43'0 0.0
2017-Oct-08 20:00N 29°34' W 090°43'0 0.0
2017-Oct-08 19:30N 29°34' W 090°43'0 0.0
2017-Oct-08 19:00N 29°34' W 090°43'1 2.0
2017-Oct-08 18:30N 29°33' W 090°42'2 4.7
2017-Oct-08 18:00N 29°36' W 090°43'2 3.4
2017-Oct-08 17:30N 29°36' W 090°41'1 1.9
2017-Oct-08 17:00N 29°36' W 090°40'0 0.0
2017-Oct-08 16:30N 29°36' W 090°40'0 0.0
2017-Oct-08 16:00N 29°36' W 090°40'0 0.0
2017-Oct-08 15:30N 29°36' W 090°40'0 0.2
2017-Oct-08 15:00N 29°36' W 090°40'2 4.7
2017-Oct-08 14:30N 29°36' W 090°43'2 4.9
2017-Oct-08 14:00N 29°34' W 090°44'3 5.9
2017-Oct-08 13:30N 29°32' W 090°47'3 0.1
2017-Oct-06 13:34N 29°32' W 090°50'0 7.2
2017-Oct-06 13:30N 29°32' W 090°50'3 7.0
2017-Oct-06 13:00N 29°32' W 090°46'3 6.4
2017-Oct-06 12:30N 29°35' W 090°43'2 4.9
2017-Oct-06 12:00N 29°36' W 090°41'0 0.0
2017-Oct-06 11:30N 29°36' W 090°41'1 2.4
2017-Oct-06 11:00N 29°36' W 090°40'0 0.1
2017-Oct-06 10:30N 29°36' W 090°40'1 2.2
2017-Oct-06 10:00N 29°36' W 090°41'1 2.5
2017-Oct-06 09:30N 29°36' W 090°43'1 2.9
2017-Oct-06 09:00N 29°35' W 090°43'1 2.6
2017-Oct-06 08:30N 29°34' W 090°43'1 2.8
2017-Oct-06 08:00N 29°32' W 090°42'1 1.7
2017-Oct-06 07:30N 29°32' W 090°42'2 3.2
2017-Oct-06 07:00N 29°30' W 090°43'6 3.2
2017-Oct-06 04:59N 29°24' W 090°44'1 2.7
2017-Oct-06 04:29N 29°24' W 090°46'2 0.2
2017-Oct-05 17:19N 29°24' W 090°44'2 6.6
2017-Oct-05 16:59N 29°27' W 090°43'6 4.3
2017-Oct-05 15:30N 29°33' W 090°42'0 0.2
2017-Oct-05 15:00N 29°33' W 090°42'0 0.2
2017-Oct-05 14:30N 29°33' W 090°42'0 0.1
2017-Oct-05 14:00N 29°33' W 090°42'1 1.1
2017-Oct-05 13:30N 29°33' W 090°42'2 3.1
2017-Oct-05 13:00N 29°34' W 090°43'0 0.0
2017-Oct-05 12:30N 29°34' W 090°43'0 0.0
2017-Oct-05 12:00N 29°34' W 090°43'0 0.0
2017-Oct-05 11:30N 29°34' W 090°43'0 0.0
2017-Oct-05 11:00N 29°34' W 090°43'0 0.0
2017-Oct-05 10:30N 29°34' W 090°43'0 0.0
2017-Oct-05 10:00N 29°34' W 090°43'0 0.0
2017-Oct-05 09:30N 29°34' W 090°43'0 0.0
2017-Oct-05 09:00N 29°34' W 090°43'0 0.0
2017-Oct-05 08:30N 29°34' W 090°43'0 0.0
2017-Oct-05 08:00N 29°34' W 090°43'0 0.0
2017-Oct-05 07:30N 29°34' W 090°43'0 0.0
2017-Oct-05 07:00N 29°34' W 090°43'0 0.0
2017-Oct-05 06:30N 29°34' W 090°43'0 0.0
2017-Oct-05 06:00N 29°34' W 090°43'0 0.0
2017-Oct-05 05:28N 29°34' W 090°43'0 0.0
2017-Oct-05 04:48N 29°34' W 090°43'0 0.0
2017-Oct-05 04:27N 29°34' W 090°43'0 0.0
2017-Oct-05 03:47N 29°34' W 090°43'0 0.0
2017-Oct-05 03:27N 29°34' W 090°43'0 0.0
2017-Oct-05 02:27N 29°34' W 090°43'0 0.0
2017-Oct-05 01:59N 29°34' W 090°43'0 0.0
2017-Oct-05 00:37N 29°34' W 090°43'0 0.0
2017-Oct-05 00:16N 29°34' W 090°43'0 0.0
2017-Oct-04 23:28N 29°34' W 090°43'0 0.0
2017-Oct-04 22:54N 29°34' W 090°43'0 0.0
2017-Oct-04 22:30N 29°34' W 090°43'0 0.0
2017-Oct-04 22:00N 29°34' W 090°43'0 0.0
2017-Oct-04 21:30N 29°34' W 090°43'0 0.0
2017-Oct-04 21:00N 29°34' W 090°43'0 0.0
2017-Oct-04 20:30N 29°34' W 090°43'0 0.0
2017-Oct-04 20:00N 29°34' W 090°43'0 0.0
2017-Oct-04 19:30N 29°34' W 090°43'0 0.0
2017-Oct-04 19:00N 29°34' W 090°43'0 0.0
2017-Oct-04 18:30N 29°34' W 090°43'0 0.8
2017-Oct-04 18:00N 29°34' W 090°43'0 0.2
2017-Oct-04 17:30N 29°34' W 090°43'0 0.0
2017-Oct-04 17:00N 29°34' W 090°43'0 0.0
2017-Oct-04 16:30N 29°34' W 090°43'0 0.0
2017-Oct-04 16:00N 29°34' W 090°43'1 2.4
2017-Oct-04 15:30N 29°35' W 090°43'2 3.9
2017-Oct-04 15:00N 29°36' W 090°41'1 1.5
2017-Oct-04 14:30N 29°36' W 090°40'0 0.3
2017-Oct-04 14:00N 29°36' W 090°40'0 0.0
2017-Oct-04 13:30N 29°36' W 090°40'0 0.0
2017-Oct-04 12:59N 29°36' W 090°40'0 0.0
2017-Oct-04 12:30N 29°36' W 090°40'0 0.0
2017-Oct-04 11:56N 29°36' W 090°40'0 1.0
2017-Oct-04 11:30N 29°36' W 090°39'3 5.4
2017-Oct-04 11:00N 29°35' W 090°36'3 6.4
2017-Oct-04 10:30N 29°34' W 090°33'4 0.1
2017-Oct-03 03:13N 29°34' W 090°28'2 6.2
2017-Oct-03 02:58N 29°34' W 090°30'3 6.2
2017-Oct-03 02:30N 29°34' W 090°33'3 6.0
2017-Oct-03 02:00N 29°35' W 090°37'3 6.4
2017-Oct-03 01:30N 29°36' W 090°40'2 4.4
2017-Oct-03 01:00N 29°37' W 090°42'2 5.0
2017-Oct-03 00:30N 29°34' W 090°43'2 3.5
2017-Oct-03 00:00N 29°33' W 090°42'1 2.4
2017-Oct-02 23:30N 29°34' W 090°42'0 0.9
2017-Oct-02 23:00N 29°34' W 090°43'0 0.0
2017-Oct-02 22:30N 29°34' W 090°43'0 0.0
2017-Oct-02 22:00N 29°34' W 090°43'0 0.0
2017-Oct-02 21:30N 29°34' W 090°43'0 0.0
2017-Oct-02 21:00N 29°34' W 090°43'0 0.0
2017-Oct-02 20:30N 29°34' W 090°43'0 0.0
2017-Oct-02 20:00N 29°34' W 090°43'0 0.0
2017-Oct-02 19:30N 29°34' W 090°43'0 0.0
2017-Oct-02 19:00N 29°34' W 090°43'0 0.0
2017-Oct-02 18:30N 29°34' W 090°43'0 0.0
2017-Oct-02 18:00N 29°34' W 090°43'0 0.0
2017-Oct-02 17:30N 29°34' W 090°43'0 0.0
2017-Oct-02 17:00N 29°34' W 090°43'0 0.0
2017-Oct-02 16:30N 29°34' W 090°43'0 0.0
2017-Oct-02 16:00N 29°34' W 090°43'  
Track history (hours):
 
Tides and Currents Weather Stations Pressure Air Temp Water Temp Dewpoint Dewpoint Depression Visibility Wind Speed Wind Dir Waves Ship Positions

M/V Annette Cenac

Owner: Caillou Island Towing, Inc, Houma, LA. More information available from US FCC via Universal Licensing System and Coast Guard Vessel Documentation Center.

Last reported at 2017-Oct-12 15:47 UTC. Time now 2017-Oct-17 11:13 UTC.
Position N 29°34' W 090°43'.

Length 20 m; draft 3 m.

Type: Tug. MMSI: 367021310.

Date/timePositionNaut miles runAvg speedWind from/ knotsBaromVisibWave heightAir tempDewpointWater temp
2017-Oct-12 15:47N 29°34' W 090°43'0 0.0
2017-Oct-12 15:30N 29°34' W 090°43'0 0.1
2017-Oct-12 15:00N 29°34' W 090°43'0 0.0
2017-Oct-12 14:30N 29°34' W 090°43'0 0.0
2017-Oct-12 14:00N 29°34' W 090°43'0 0.0
2017-Oct-12 13:30N 29°34' W 090°43'0 0.0
2017-Oct-11 22:45N 29°34' W 090°43'0 0.0
2017-Oct-11 22:30N 29°34' W 090°43'0 0.0
2017-Oct-11 22:00N 29°34' W 090°43'0 0.0
2017-Oct-11 21:30N 29°34' W 090°43'0 0.0
2017-Oct-11 21:00N 29°34' W 090°43'0 0.0
2017-Oct-11 20:30N 29°34' W 090°43'0 0.0
2017-Oct-11 20:00N 29°34' W 090°43'0 0.0
2017-Oct-11 19:30N 29°34' W 090°43'0 0.0
2017-Oct-11 19:00N 29°34' W 090°43'0 0.0
2017-Oct-11 18:30N 29°34' W 090°43'0 0.0
2017-Oct-11 18:00N 29°34' W 090°43'0 0.0
2017-Oct-11 17:30N 29°34' W 090°43'0 0.0
2017-Oct-11 17:00N 29°34' W 090°43'0 0.0
2017-Oct-11 00:00N 29°34' W 090°43'0 0.0
2017-Oct-10 23:30N 29°34' W 090°43'0 0.0
2017-Oct-10 23:00N 29°34' W 090°43'0 0.3
2017-Oct-10 22:30N 29°34' W 090°43'1 1.4
2017-Oct-10 22:00N 29°34' W 090°42'0 0.1
2017-Oct-10 21:30N 29°34' W 090°42'0 0.2
2017-Oct-10 21:00N 29°34' W 090°42'0 0.0
2017-Oct-10 20:30N 29°34' W 090°42'1 1.6
2017-Oct-10 20:00N 29°34' W 090°43'0 0.0
2017-Oct-10 19:30N 29°34' W 090°43'0 0.0
2017-Oct-10 19:00N 29°34' W 090°43'0 0.0
2017-Oct-10 18:30N 29°34' W 090°43'0 0.0
2017-Oct-10 18:00N 29°34' W 090°43'0 0.0
2017-Oct-10 17:30N 29°34' W 090°43'0 0.0
2017-Oct-10 17:00N 29°34' W 090°43'0 0.0
2017-Oct-10 16:30N 29°34' W 090°43'0 0.0
2017-Oct-10 16:00N 29°34' W 090°43'0 0.0
2017-Oct-10 15:30N 29°34' W 090°43'0 0.0
2017-Oct-10 15:00N 29°34' W 090°43'0 0.0
2017-Oct-10 14:00N 29°34' W 090°43'2 4.9
2017-Oct-10 13:30N 29°32' W 090°42'4 6.8
2017-Oct-10 12:58N 29°28' W 090°43'6 0.6
2017-Oct-10 03:20N 29°25' W 090°49'1 3.3
2017-Oct-10 02:59N 29°25' W 090°47'4 2.1
2017-Oct-10 01:10N 29°26' W 090°43'2 4.4
2017-Oct-10 00:46N 29°28' W 090°43'1 4.4
2017-Oct-10 00:30N 29°29' W 090°43'2 4.4
2017-Oct-10 00:00N 29°31' W 090°42'2 4.2
2017-Oct-09 23:30N 29°33' W 090°42'2 3.3
2017-Oct-09 23:00N 29°35' W 090°43'2 3.1
2017-Oct-09 22:30N 29°36' W 090°43'1 2.1
2017-Oct-09 22:00N 29°37' W 090°41'1 2.8
2017-Oct-09 21:30N 29°36' W 090°40'0 0.1
2017-Oct-09 21:00N 29°36' W 090°40'0 0.0
2017-Oct-09 20:30N 29°36' W 090°40'0 0.2
2017-Oct-09 20:00N 29°36' W 090°40'0 0.1
2017-Oct-09 19:30N 29°36' W 090°40'0 0.0
2017-Oct-09 19:00N 29°36' W 090°40'0 0.0
2017-Oct-09 18:30N 29°36' W 090°40'0 0.5
2017-Oct-09 18:00N 29°36' W 090°40'0 0.0
2017-Oct-09 17:30N 29°36' W 090°40'0 0.0
2017-Oct-09 17:00N 29°36' W 090°40'0 0.0
2017-Oct-09 16:30N 29°36' W 090°40'0 0.5
2017-Oct-09 16:00N 29°36' W 090°40'2 3.6
2017-Oct-09 15:30N 29°37' W 090°42'2 4.0
2017-Oct-09 15:00N 29°35' W 090°43'1 2.6
2017-Oct-09 14:30N 29°34' W 090°42'0 0.9
2017-Oct-09 14:00N 29°34' W 090°43'0 0.0
2017-Oct-09 13:30N 29°34' W 090°43'0 0.0
2017-Oct-09 13:00N 29°34' W 090°43'0 0.0
2017-Oct-09 12:30N 29°34' W 090°43'0 0.0
2017-Oct-09 12:00N 29°34' W 090°43'0 0.0
2017-Oct-09 11:30N 29°34' W 090°43'0 0.0
2017-Oct-09 11:00N 29°34' W 090°43'0 0.0
2017-Oct-09 10:30N 29°34' W 090°43'0 0.0
2017-Oct-09 10:00N 29°34' W 090°43'0 0.0
2017-Oct-09 09:30N 29°34' W 090°43'0 0.0
2017-Oct-09 09:00N 29°34' W 090°43'0 0.0
2017-Oct-09 08:30N 29°34' W 090°43'0 0.0
2017-Oct-09 08:00N 29°34' W 090°43'0 0.0
2017-Oct-09 07:30N 29°34' W 090°43'0 0.0
2017-Oct-09 07:00N 29°34' W 090°43'0 0.0
2017-Oct-09 06:30N 29°34' W 090°43'0 0.0
2017-Oct-09 06:00N 29°34' W 090°43'0 0.0
2017-Oct-09 05:30N 29°34' W 090°43'0 0.0
2017-Oct-09 05:00N 29°34' W 090°43'0 0.0
2017-Oct-09 04:30N 29°34' W 090°43'0 0.0
2017-Oct-09 04:00N 29°34' W 090°43'0 0.0
2017-Oct-09 03:30N 29°34' W 090°43'0 0.0
2017-Oct-09 03:00N 29°34' W 090°43'0 0.0
2017-Oct-09 02:30N 29°34' W 090°43'0 0.0
2017-Oct-09 02:00N 29°34' W 090°43'0 0.0
2017-Oct-09 01:30N 29°34' W 090°43'0 0.0
2017-Oct-09 01:00N 29°34' W 090°43'0 0.0
2017-Oct-09 00:30N 29°34' W 090°43'0 0.0
2017-Oct-09 00:00N 29°34' W 090°43'0 0.0
2017-Oct-08 23:30N 29°34' W 090°43'0 0.0
2017-Oct-08 23:00N 29°34' W 090°43'0 0.0
2017-Oct-08 22:30N 29°34' W 090°43'0 0.0
2017-Oct-08 22:00N 29°34' W 090°43'0 0.0
2017-Oct-08 21:30N 29°34' W 090°43'0 0.0
2017-Oct-08 21:00N 29°34' W 090°43'0 0.0
2017-Oct-08 20:30N 29°34' W 090°43'0 0.0
2017-Oct-08 20:00N 29°34' W 090°43'0 0.0
2017-Oct-08 19:30N 29°34' W 090°43'0 0.0
2017-Oct-08 19:00N 29°34' W 090°43'1 2.0
2017-Oct-08 18:30N 29°33' W 090°42'2 4.7
2017-Oct-08 18:00N 29°36' W 090°43'2 3.4
2017-Oct-08 17:30N 29°36' W 090°41'1 1.9
2017-Oct-08 17:00N 29°36' W 090°40'0 0.0
2017-Oct-08 16:30N 29°36' W 090°40'0 0.0
2017-Oct-08 16:00N 29°36' W 090°40'0 0.0
2017-Oct-08 15:30N 29°36' W 090°40'0 0.2
2017-Oct-08 15:00N 29°36' W 090°40'2 4.7
2017-Oct-08 14:30N 29°36' W 090°43'2 4.9
2017-Oct-08 14:00N 29°34' W 090°44'3 5.9
2017-Oct-08 13:30N 29°32' W 090°47'3 0.1
2017-Oct-06 13:34N 29°32' W 090°50'0 7.2
2017-Oct-06 13:30N 29°32' W 090°50'3 7.0
2017-Oct-06 13:00N 29°32' W 090°46'3 6.4
2017-Oct-06 12:30N 29°35' W 090°43'2 4.9
2017-Oct-06 12:00N 29°36' W 090°41'0 0.0
2017-Oct-06 11:30N 29°36' W 090°41'1 2.4
2017-Oct-06 11:00N 29°36' W 090°40'0 0.1
2017-Oct-06 10:30N 29°36' W 090°40'1 2.2
2017-Oct-06 10:00N 29°36' W 090°41'1 2.5
2017-Oct-06 09:30N 29°36' W 090°43'1 2.9
2017-Oct-06 09:00N 29°35' W 090°43'1 2.6
2017-Oct-06 08:30N 29°34' W 090°43'1 2.8
2017-Oct-06 08:00N 29°32' W 090°42'1 1.7
2017-Oct-06 07:30N 29°32' W 090°42'2 3.2
2017-Oct-06 07:00N 29°30' W 090°43'6 3.2
2017-Oct-06 04:59N 29°24' W 090°44'1 2.7
2017-Oct-06 04:29N 29°24' W 090°46'2 0.2
2017-Oct-05 17:19N 29°24' W 090°44'2 6.6
2017-Oct-05 16:59N 29°27' W 090°43'6 4.3
2017-Oct-05 15:30N 29°33' W 090°42'0 0.2
2017-Oct-05 15:00N 29°33' W 090°42'0 0.2
2017-Oct-05 14:30N 29°33' W 090°42'0 0.1
2017-Oct-05 14:00N 29°33' W 090°42'1 1.1
2017-Oct-05 13:30N 29°33' W 090°42'2 3.1
2017-Oct-05 13:00N 29°34' W 090°43'0 0.0
2017-Oct-05 12:30N 29°34' W 090°43'0 0.0
2017-Oct-05 12:00N 29°34' W 090°43'0 0.0
2017-Oct-05 11:30N 29°34' W 090°43'0 0.0
2017-Oct-05 11:00N 29°34' W 090°43'0 0.0
2017-Oct-05 10:30N 29°34' W 090°43'0 0.0
2017-Oct-05 10:00N 29°34' W 090°43'0 0.0
2017-Oct-05 09:30N 29°34' W 090°43'0 0.0
2017-Oct-05 09:00N 29°34' W 090°43'0 0.0
2017-Oct-05 08:30N 29°34' W 090°43'0 0.0
2017-Oct-05 08:00N 29°34' W 090°43'0 0.0
2017-Oct-05 07:30N 29°34' W 090°43'0 0.0
2017-Oct-05 07:00N 29°34' W 090°43'0 0.0
2017-Oct-05 06:30N 29°34' W 090°43'0 0.0
2017-Oct-05 06:00N 29°34' W 090°43'0 0.0
2017-Oct-05 05:28N 29°34' W 090°43'0 0.0
2017-Oct-05 04:48N 29°34' W 090°43'0 0.0
2017-Oct-05 04:27N 29°34' W 090°43'0 0.0
2017-Oct-05 03:47N 29°34' W 090°43'0 0.0
2017-Oct-05 03:27N 29°34' W 090°43'0 0.0
2017-Oct-05 02:27N 29°34' W 090°43'0 0.0
2017-Oct-05 01:59N 29°34' W 090°43'0 0.0
2017-Oct-05 00:37N 29°34' W 090°43'0 0.0
2017-Oct-05 00:16N 29°34' W 090°43'0 0.0
2017-Oct-04 23:28N 29°34' W 090°43'0 0.0
2017-Oct-04 22:54N 29°34' W 090°43'0 0.0
2017-Oct-04 22:30N 29°34' W 090°43'0 0.0
2017-Oct-04 22:00N 29°34' W 090°43'0 0.0
2017-Oct-04 21:30N 29°34' W 090°43'0 0.0
2017-Oct-04 21:00N 29°34' W 090°43'0 0.0
2017-Oct-04 20:30N 29°34' W 090°43'0 0.0
2017-Oct-04 20:00N 29°34' W 090°43'0 0.0
2017-Oct-04 19:30N 29°34' W 090°43'0 0.0
2017-Oct-04 19:00N 29°34' W 090°43'0 0.0
2017-Oct-04 18:30N 29°34' W 090°43'0 0.8
2017-Oct-04 18:00N 29°34' W 090°43'0 0.2
2017-Oct-04 17:30N 29°34' W 090°43'0 0.0
2017-Oct-04 17:00N 29°34' W 090°43'0 0.0
2017-Oct-04 16:30N 29°34' W 090°43'0 0.0
2017-Oct-04 16:00N 29°34' W 090°43'1 2.4
2017-Oct-04 15:30N 29°35' W 090°43'2 3.9
2017-Oct-04 15:00N 29°36' W 090°41'1 1.5
2017-Oct-04 14:30N 29°36' W 090°40'0 0.3
2017-Oct-04 14:00N 29°36' W 090°40'0 0.0
2017-Oct-04 13:30N 29°36' W 090°40'0 0.0
2017-Oct-04 12:59N 29°36' W 090°40'0 0.0
2017-Oct-04 12:30N 29°36' W 090°40'0 0.0
2017-Oct-04 11:56N 29°36' W 090°40'0 1.0
2017-Oct-04 11:30N 29°36' W 090°39'3 5.4
2017-Oct-04 11:00N 29°35' W 090°36'3 6.4
2017-Oct-04 10:30N 29°34' W 090°33'4 0.1
2017-Oct-03 03:13N 29°34' W 090°28'2 6.2
2017-Oct-03 02:58N 29°34' W 090°30'3 6.2
2017-Oct-03 02:30N 29°34' W 090°33'3 6.0
2017-Oct-03 02:00N 29°35' W 090°37'3 6.4
2017-Oct-03 01:30N 29°36' W 090°40'2 4.4
2017-Oct-03 01:00N 29°37' W 090°42'2 5.0
2017-Oct-03 00:30N 29°34' W 090°43'2 3.5
2017-Oct-03 00:00N 29°33' W 090°42'1 2.4
2017-Oct-02 23:30N 29°34' W 090°42'0 0.9
2017-Oct-02 23:00N 29°34' W 090°43'0 0.0
2017-Oct-02 22:30N 29°34' W 090°43'0 0.0
2017-Oct-02 22:00N 29°34' W 090°43'0 0.0
2017-Oct-02 21:30N 29°34' W 090°43'0 0.0
2017-Oct-02 21:00N 29°34' W 090°43'0 0.0
2017-Oct-02 20:30N 29°34' W 090°43'0 0.0
2017-Oct-02 20:00N 29°34' W 090°43'0 0.0
2017-Oct-02 19:30N 29°34' W 090°43'0 0.0
2017-Oct-02 19:00N 29°34' W 090°43'0 0.0
2017-Oct-02 18:30N 29°34' W 090°43'0 0.0
2017-Oct-02 18:00N 29°34' W 090°43'0 0.0
2017-Oct-02 17:30N 29°34' W 090°43'0 0.0
2017-Oct-02 17:00N 29°34' W 090°43'0 0.0
2017-Oct-02 16:30N 29°34' W 090°43'0 0.0
2017-Oct-02 16:00N 29°34' W 090°43'  

Dump ship's entire track history